Time;durP1;ratioP1;P1;durP2;ratioP2;P2;SDS_P1;SDS_P2;PMS_P1;PMS_P2;Temp;Humidity;BMP_temperature;BMP_pressure;BME280_temperature;BME280_humidity;BME280_pressure;Samples;Min_cycle;Max_cycle;Signal;HPM_P1;HPM_P2
2022/06/19 00:01:57;;;;;;;2.10;1.45;;;;;;;21.91;52.56;99881.70;1630391;118;25892;-88
2022/06/19 00:05:55;;;;;;;4.75;1.75;;;;;;;21.91;52.60;99878.19;1593134;120;25680;-92
2022/06/19 00:22:08;;;;;;;4.85;1.45;;;;;;;21.84;53.11;99884.60;1557076;124;26076;-89
2022/06/19 00:25:47;;;;;;;4.08;1.72;;;;;;;21.80;53.16;99893.11;1563105;122;25556;-91
2022/06/19 00:34:51;;;;;;;;;;;;;;;21.78;53.32;99896.72;1609985;121;25973;-85
2022/06/19 00:38:46;;;;;;;3.67;1.42;;;;;;;21.76;53.35;99894.56;1606785;121;26725;-90
2022/06/19 00:42:37;;;;;;;4.85;1.67;;;;;;;21.76;53.35;99893.23;1640276;117;25988;-91
2022/06/19 00:46:50;;;;;;;5.67;1.52;;;;;;;21.76;53.55;99890.58;1673465;114;25938;-90
2022/06/19 00:51:05;;;;;;;3.95;1.70;;;;;;;21.72;53.60;99889.80;1652583;117;25985;-88
2022/06/19 00:59:29;;;;;;;6.42;1.60;;;;;;;21.83;53.42;99904.93;1722280;111;25812;-87
2022/06/19 01:07:35;;;;;;;4.92;1.87;;;;;;;21.95;53.17;99909.02;1802029;108;25963;-92
2022/06/19 01:11:08;;;;;;;4.62;2.58;;;;;;;22.01;53.02;99911.95;1853312;106;25908;-90
2022/06/19 01:15:31;;;;;;;5.70;2.73;;;;;;;22.02;53.01;99919.84;1859375;104;26080;-91
2022/06/19 01:19:13;;;;;;;9.05;2.40;;;;;;;22.03;52.93;99920.72;1859878;104;25966;-88
2022/06/19 01:23:23;;;;;;;8.55;2.87;;;;;;;22.10;52.78;99914.30;1861700;104;25740;-88
2022/06/19 01:31:52;;;;;;;8.00;2.83;;;;;;;22.20;52.65;99924.20;1849943;104;26042;-91
2022/06/19 01:35:32;;;;;;;5.58;2.77;;;;;;;22.16;52.61;99926.09;1783488;108;25897;-91
2022/06/19 01:39:08;;;;;;;4.12;2.62;;;;;;;22.28;52.77;99928.38;1752683;110;26210;-91
2022/06/19 01:42:31;;;;;;;8.48;2.80;;;;;;;22.27;52.43;99927.08;1753603;110;26538;-91
2022/06/19 01:45:57;;;;;;;5.40;2.47;;;;;;;22.35;52.62;99939.67;1752566;109;25889;-89
2022/06/19 01:49:25;;;;;;;4.62;2.72;;;;;;;22.43;52.74;99935.43;1752270;109;26088;-89
2022/06/19 01:53:11;;;;;;;5.10;2.80;;;;;;;22.38;52.66;99932.94;1759502;109;25996;-91
2022/06/19 01:56:55;;;;;;;5.58;2.80;;;;;;;22.30;52.66;99925.65;1805199;106;26049;-91
2022/06/19 02:05:11;;;;;;;4.15;2.50;;;;;;;22.27;52.80;99928.40;1748846;111;25832;-91
2022/06/19 02:09:03;;;;;;;7.90;2.27;;;;;;;22.26;52.78;99922.69;1757711;109;26017;-88
2022/06/19 02:12:42;;;;;;;13.80;3.02;;;;;;;22.17;52.92;99922.51;1838232;103;26629;-87
2022/06/19 02:16:16;;;;;;;5.65;2.12;;;;;;;22.12;52.96;99921.30;1822601;106;25876;-86
2022/06/19 02:19:37;;;;;;;3.75;2.60;;;;;;;22.08;53.10;99926.77;1823227;106;25674;-87
2022/06/19 02:23:00;;;;;;;6.03;2.15;;;;;;;22.03;53.21;99925.56;1821695;107;25849;-87
2022/06/19 02:26:26;;;;;;;4.00;1.90;;;;;;;22.02;53.41;99914.55;1819634;107;25803;-88
2022/06/19 02:30:01;;;;;;;4.00;2.08;;;;;;;21.99;53.53;99916.42;1770050;110;26157;-82
2022/06/19 02:46:06;;;;;;;5.58;1.92;;;;;;;22.01;53.74;99898.22;2414197;80;25668;-86
2022/06/19 02:49:45;;;;;;;4.20;2.08;;;;;;;21.99;53.78;99896.05;2306029;84;25875;-81
2022/06/19 02:53:09;;;;;;;6.22;2.25;;;;;;;21.91;53.88;99892.31;2216614;87;25504;-87
2022/06/19 03:01:59;;;;;;;2.12;1.90;;;;;;;21.84;54.04;99884.14;2106963;91;25945;-91
2022/06/19 03:05:41;;;;;;;6.42;2.42;;;;;;;21.78;54.12;99883.45;2016562;97;25742;-89
2022/06/19 03:09:26;;;;;;;3.98;2.85;;;;;;;21.77;54.21;99883.02;2013362;95;25786;-89
2022/06/19 03:13:38;;;;;;;4.17;2.05;;;;;;;21.71;54.39;99883.23;1999477;97;25731;-91
2022/06/19 03:17:33;;;;;;;2.25;2.05;;;;;;;21.87;54.18;99885.84;2006204;97;26176;-89
2022/06/19 03:21:22;;;;;;;;;;;;;;;;;;;;;
2022/06/19 03:25:18;;;;;;;3.35;2.15;;;;;;;21.79;54.32;99879.87;2022821;95;25819;-83
2022/06/19 03:28:45;;;;;;;7.80;2.50;;;;;;;21.65;54.61;99876.31;2057173;95;26006;-90
2022/06/19 03:32:30;;;;;;;3.67;2.22;;;;;;;21.68;54.68;99867.80;1989928;95;26271;-86
2022/06/19 03:36:18;;;;;;;2.85;2.05;;;;;;;21.59;54.75;99868.07;1984650;98;25877;-89
2022/06/19 03:40:01;;;;;;;2.67;2.15;;;;;;;21.51;55.03;99865.25;1984532;98;25799;-89
2022/06/19 03:43:59;;;;;;;4.83;1.90;;;;;;;21.44;55.22;99869.87;1959000;98;25896;-87
2022/06/19 03:47:39;;;;;;;2.45;2.00;;;;;;;21.38;55.42;99872.23;1989446;96;25803;-90
2022/06/19 03:59:10;;;;;;;4.12;2.50;;;;;;;21.61;55.34;99888.80;1997775;97;25769;-89
2022/06/19 04:02:35;;;;;;;4.03;2.15;;;;;;;21.71;55.22;99879.25;2007411;98;25763;-85
2022/06/19 04:06:05;;;;;;;4.47;2.27;;;;;;;21.81;55.07;99879.38;2009483;97;26186;-87
2022/06/19 04:09:27;;;;;;;7.15;2.05;;;;;;;21.95;54.82;99880.28;2027861;95;25760;-85
2022/06/19 04:12:57;;;;;;;7.12;2.10;;;;;;;21.93;54.69;99880.31;2008658;96;25794;-88
2022/06/19 04:16:29;;;;;;;5.35;1.77;;;;;;;21.91;54.73;99870.22;2034074;95;25939;-87
2022/06/19 04:20:04;;;;;;;7.83;2.35;;;;;;;21.85;54.87;99867.75;2087507;93;26308;-89
2022/06/19 04:23:41;;;;;;;3.22;1.90;;;;;;;21.78;55.00;99870.19;2067589;94;25896;-86
2022/06/19 04:27:23;;;;;;;3.10;1.90;;;;;;;21.70;55.20;99866.45;2064551;95;25945;-80
2022/06/19 04:31:00;;;;;;;4.80;1.90;;;;;;;21.69;55.42;99859.38;2047149;94;25902;-88
2022/06/19 04:37:57;;;;;;;5.10;2.30;;;;;;;21.69;55.60;99851.42;2050940;93;25761;-88
2022/06/19 04:41:31;;;;;;;5.57;2.13;;;;;;;21.69;55.56;99852.75;2060016;94;25783;-86
2022/06/19 04:45:10;;;;;;;3.77;1.90;;;;;;;21.70;55.67;99855.84;2014032;97;25761;-89
2022/06/19 04:48:55;;;;;;;4.25;1.98;;;;;;;21.72;55.71;99846.49;2012731;96;25924;-88
2022/06/19 04:56:18;;;;;;;7.47;2.22;;;;;;;21.88;55.51;99840.66;1905059;102;25780;-89
2022/06/19 05:04:06;;;;;;;5.67;1.98;;;;;;;22.02;55.29;99842.88;1847036;106;25879;-87
2022/06/19 05:07:44;;;;;;;2.50;1.87;;;;;;;22.15;55.13;99840.27;1833390;103;25434;-86
2022/06/19 05:11:40;;;;;;;3.70;2.12;;;;;;;22.20;54.95;99833.47;1898962;102;25786;-84
2022/06/19 05:15:32;;;;;;;5.05;2.10;;;;;;;22.37;54.74;99839.08;1901987;102;25777;-90
2022/06/19 05:19:26;;;;;;;1.95;1.55;;;;;;;22.38;54.55;99835.53;1870056;104;25962;-92
2022/06/19 05:26:54;;;;;;;5.12;1.80;;;;;;;22.56;54.48;99838.48;1904924;102;26032;-88
2022/06/19 05:30:43;;;;;;;5.17;1.75;;;;;;;22.78;54.06;99843.89;1900067;102;25808;-87
2022/06/19 05:37:49;;;;;;;8.05;2.25;;;;;;;23.21;53.42;99833.95;1817011;107;25773;-86
2022/06/19 05:41:28;;;;;;;;;;;;;;;;;;;;;
2022/06/19 05:49:14;;;;;;;2.55;1.75;;;;;;;23.55;52.59;99822.03;1870241;104;25794;-87
2022/06/19 05:52:58;;;;;;;5.90;1.77;;;;;;;23.79;52.09;99829.55;1859105;104;26649;-86
2022/06/19 05:56:56;;;;;;;;;;;;;;;;;;;;;
2022/06/19 06:00:34;;;;;;;;;;;;;;;;;;;;;
2022/06/19 06:04:10;;;;;;;5.22;1.80;;;;;;;24.37;51.13;99829.00;1828263;103;25886;-88
2022/06/19 06:07:58;;;;;;;2.40;1.77;;;;;;;24.46;50.62;99825.48;1862228;104;26250;-89
2022/06/19 06:11:36;;;;;;;2.62;1.80;;;;;;;24.72;50.72;99816.38;1858288;104;25770;-92
2022/06/19 06:19:00;;;;;;;9.45;2.20;;;;;;;25.29;49.48;99811.20;1881529;103;25995;-88
2022/06/19 06:22:46;;;;;;;6.78;1.90;;;;;;;25.49;49.16;99811.61;1877554;103;25389;-88
2022/06/19 06:31:23;;;;;;;4.95;1.95;;;;;;;25.83;47.80;99808.22;1911998;100;25435;-84
2022/06/19 06:35:10;;;;;;;3.53;1.87;;;;;;;26.17;47.55;99807.89;1926426;100;25749;-92
2022/06/19 06:38:59;;;;;;;4.53;2.10;;;;;;;26.35;47.38;99812.30;1902948;101;25923;-89
2022/06/19 06:42:37;;;;;;;6.37;2.33;;;;;;;26.62;46.57;99803.84;1896865;102;25936;-90
2022/06/19 06:46:38;;;;;;;3.10;1.60;;;;;;;26.85;45.73;99803.98;1883220;103;26099;-87
2022/06/19 06:50:49;;;;;;;2.83;2.15;;;;;;;26.92;44.84;99804.52;1811030;106;25999;-86
2022/06/19 06:54:40;;;;;;;3.37;2.00;;;;;;;27.07;45.21;99801.91;1802618;107;26035;-89
2022/06/19 07:01:58;;;;;;;3.60;1.82;;;;;;;27.47;44.27;99795.75;1740206;111;25894;-89
2022/06/19 07:06:08;;;;;;;3.75;2.02;;;;;;;27.77;43.27;99808.38;1742899;109;26149;-89
2022/06/19 07:10:10;;;;;;;;;;;;;;;;;;;;;
2022/06/19 07:14:03;;;;;;;;;;;;;;;;;;;;;
2022/06/19 07:18:46;;;;;;;2.10;1.52;;;;;;;28.36;42.01;99805.39;1674801;112;25947;-81
2022/06/19 07:22:32;;;;;;;;;;;;;;;;;;;;;
2022/06/19 07:26:15;;;;;;;3.40;1.87;;;;;;;28.62;41.97;99800.31;1738790;110;26121;-90
2022/06/19 07:34:46;;;;;;;3.98;1.85;;;;;;;29.51;41.52;99794.81;1719481;111;25501;-81
2022/06/19 07:39:04;;;;;;;3.30;1.65;;;;;;;29.68;39.96;99801.82;1693860;113;26594;-85
2022/06/19 07:42:38;;;;;;;3.00;1.80;;;;;;;29.79;40.18;99793.42;1727944;107;26012;-82
2022/06/19 07:46:26;;;;;;;6.92;1.98;;;;;;;30.00;39.85;99788.94;1765155;110;26106;-86
2022/06/19 07:50:16;;;;;;;2.17;1.42;;;;;;;30.38;39.73;99796.31;1754479;109;25913;-89
2022/06/19 07:54:07;;;;;;;5.53;1.52;;;;;;;30.56;38.99;99793.20;1751263;111;26002;-89
2022/06/19 07:57:54;;;;;;;3.17;1.95;;;;;;;30.84;38.36;99807.95;1756026;111;25904;-90
2022/06/19 08:01:34;;;;;;;7.95;1.95;;;;;;;30.89;37.49;99799.09;1770904;108;25983;-86
2022/06/19 08:05:27;;;;;;;1.62;1.40;;;;;;;30.86;36.87;99779.97;1763875;110;26310;-88
2022/06/19 08:13:37;;;;;;;3.00;1.60;;;;;;;31.43;37.01;99780.85;1759629;110;26052;-91
2022/06/19 08:17:25;;;;;;;4.10;1.45;;;;;;;31.80;36.21;99782.69;1735264;110;25773;-92
2022/06/19 08:21:10;;;;;;;3.77;1.27;;;;;;;32.08;36.31;99774.75;1775896;109;26267;-81
2022/06/19 08:24:54;;;;;;;6.95;1.47;;;;;;;32.16;35.29;99775.91;1786313;109;25464;-80
2022/06/19 08:32:46;;;;;;;7.50;1.77;;;;;;;32.26;34.63;99780.58;1800276;108;25990;-82
2022/06/19 08:36:45;;;;;;;5.17;1.75;;;;;;;32.41;34.64;99774.03;1802142;108;25960;-79
2022/06/19 08:40:38;;;;;;;6.95;1.45;;;;;;;32.62;34.45;99777.78;1849064;105;25999;-80
2022/06/19 08:44:54;;;;;;;4.67;1.65;;;;;;;32.69;34.46;99776.81;1874451;103;26108;-79
2022/06/19 08:48:54;;;;;;;3.02;1.37;;;;;;;32.61;33.53;99778.77;1874713;104;26033;-81
2022/06/19 08:57:50;;;;;;;5.47;2.10;;;;;;;32.85;33.50;99762.48;1911811;102;25788;-81
2022/06/19 09:02:08;;;;;;;7.53;1.62;;;;;;;32.94;33.96;99756.86;1851310;103;26028;-80
2022/06/19 09:06:14;;;;;;;8.60;1.52;;;;;;;33.21;33.79;99768.67;1844033;104;26230;-81
2022/06/19 09:14:23;;;;;;;8.13;1.90;;;;;;;33.42;32.75;99761.16;1883314;103;26022;-83
2022/06/19 09:18:24;;;;;;;6.37;1.40;;;;;;;33.66;32.28;99759.17;1775433;107;26741;-82
2022/06/19 09:22:10;;;;;;;8.95;1.42;;;;;;;33.59;32.06;99757.47;1848066;104;27075;-78
2022/06/19 09:26:33;;;;;;;5.67;1.32;;;;;;;33.55;32.09;99756.01;1804553;105;25969;-81
2022/06/19 09:39:06;;;;;;;4.30;1.87;;;;;;;33.82;31.84;99733.94;1723540;112;26091;-84
2022/06/19 09:43:22;;;;;;;;;;;;;;;;;;;;;
2022/06/19 10:03:10;;;;;;;4.90;1.57;;;;;;;34.33;30.30;99727.47;1678748;114;26026;-83
2022/06/19 10:11:31;;;;;;;7.05;1.40;;;;;;;34.22;30.49;99717.08;1674498;115;25880;-85
2022/06/19 10:15:34;;;;;;;5.15;1.82;;;;;;;34.64;30.45;99726.55;1727421;111;25954;-86
2022/06/19 10:24:39;;;;;;;4.08;1.70;;;;;;;34.43;30.49;99718.92;1907799;101;25738;-85
2022/06/19 10:29:06;;;;;;;2.75;1.55;;;;;;;34.39;30.05;99695.33;1898591;100;26186;-86
2022/06/19 10:37:46;;;;;;;;;;;;;;;;;;;;;
2022/06/19 10:46:19;;;;;;;2.05;0.98;;;;;;;34.68;30.09;99675.69;1842159;99;25856;-85
2022/06/19 10:58:40;;;;;;;6.03;1.40;;;;;;;34.77;29.57;99673.03;1870545;102;25550;-86
2022/06/19 11:08:02;;;;;;;;;;;;;;;;;;;;;
2022/06/19 11:14:09;;;;;;;2.62;1.92;;;;;;;34.63;28.97;99655.80;1906263;101;26065;-84
2022/06/19 11:18:18;;;;;;;6.58;1.32;;;;;;;34.68;28.98;99640.50;1903875;102;25853;-86
2022/06/19 11:22:23;;;;;;;2.55;0.88;;;;;;;34.83;28.05;99644.56;1897444;102;25887;-85
2022/06/19 11:32:50;;;;;;;6.35;1.70;;;;;;;34.70;28.19;99619.07;1784265;109;25898;-81
2022/06/19 11:37:03;;;;;;;;;;;;;;;;;;;;;
2022/06/19 11:45:44;;;;;;;3.60;1.30;;;;;;;34.81;28.10;99605.06;1841744;105;26167;-83
2022/06/19 11:49:53;;;;;;;4.60;1.30;;;;;;;34.80;27.86;99610.98;1828304;106;25857;-84
2022/06/19 11:58:03;;;;;;;4.62;1.55;;;;;;;34.79;28.02;99607.39;1805159;106;25972;-83
2022/06/19 12:02:15;;;;;;;6.40;1.17;;;;;;;35.07;27.73;99598.65;1778699;108;26054;-92
2022/06/19 12:06:31;;;;;;;6.75;1.65;;;;;;;35.27;27.58;99599.53;1816271;104;25503;-82
2022/06/19 12:15:31;;;;;;;6.30;1.62;;;;;;;35.65;27.34;99589.25;1937656;99;26635;-83
2022/06/19 12:19:42;;;;;;;3.75;1.60;;;;;;;35.79;26.79;99591.50;1941463;99;26125;-83
2022/06/19 12:24:08;;;;;;;4.60;1.15;;;;;;;35.80;26.65;99574.73;1884694;102;26093;-84
2022/06/19 12:34:31;;;;;;;;;;;;;;;;;;;;;
2022/06/19 12:38:17;;;;;;;7.15;1.20;;;;;;;35.99;26.65;99581.98;1851932;101;25914;-84
2022/06/19 12:47:50;;;;;;;6.97;1.17;;;;;;;36.00;26.66;99570.97;1863538;104;26466;-84
2022/06/19 12:51:31;;;;;;;7.20;1.30;;;;;;;35.75;26.16;99561.62;1866220;103;25950;-84
2022/06/19 12:55:15;;;;;;;11.08;1.37;;;;;;;35.64;27.02;99553.15;1842544;105;25909;-84
2022/06/19 12:59:10;;;;;;;7.25;1.52;;;;;;;35.71;26.36;99547.50;1878573;103;26243;-84
2022/06/19 13:03:28;;;;;;;6.78;1.55;;;;;;;35.71;26.53;99559.70;1888587;103;25492;-84
2022/06/19 13:07:30;;;;;;;7.80;1.50;;;;;;;35.85;26.84;99550.75;1913758;96;26388;-88
2022/06/19 13:15:39;;;;;;;7.30;1.67;;;;;;;35.91;26.33;99546.08;1962574;97;25939;-84
2022/06/19 13:24:19;;;;;;;13.25;2.42;;;;;;;35.75;25.58;99537.72;1965073;98;25792;-78
2022/06/19 13:28:39;;;;;;;;;;;;;;;;;;;;;
2022/06/19 13:32:31;;;;;;;9.80;1.75;;;;;;;35.84;25.24;99519.19;1972786;97;26518;-87
2022/06/19 13:40:07;;;;;;;9.63;1.43;;;;;;;35.52;25.69;99498.72;1883461;103;26712;-81
2022/06/19 13:44:29;;;;;;;6.75;1.55;;;;;;;35.27;25.99;99495.21;1892561;102;25951;-87
2022/06/19 13:48:34;;;;;;;5.05;1.37;;;;;;;35.06;26.43;99490.80;1829394;104;25875;-87
2022/06/19 13:56:54;;;;;;;;;;;;;;;;;;;;;
2022/06/19 14:01:04;;;;;;;7.15;1.40;;;;;;;34.53;26.89;99466.80;1873245;102;26447;-89
2022/06/19 14:05:21;;;;;;;5.03;2.00;;;;;;;34.03;27.32;99453.22;1906178;101;26098;-83
2022/06/19 14:09:24;;;;;;;6.57;1.23;;;;;;;33.77;27.67;99440.62;1897061;102;25751;-87
2022/06/19 14:13:28;;;;;;;2.80;1.35;;;;;;;33.70;27.70;99436.25;1929950;98;25864;-88
2022/06/19 14:17:40;;;;;;;5.90;1.52;;;;;;;33.68;27.82;99434.16;1930185;98;25954;-86
2022/06/19 14:21:45;;;;;;;14.28;1.77;;;;;;;33.61;28.06;99425.73;1932725;100;25998;-83
2022/06/19 14:25:56;;;;;;;5.75;1.62;;;;;;;33.45;28.48;99415.89;1905192;101;25848;-87
2022/06/19 14:29:53;;;;;;;8.83;1.75;;;;;;;33.38;28.64;99414.72;1955005;97;25972;-82
2022/06/19 14:37:46;;;;;;;6.87;1.60;;;;;;;33.31;28.49;99400.89;1935700;99;25780;-88
2022/06/19 14:41:51;;;;;;;;;;;;;;;;;;;;;
2022/06/19 14:46:08;;;;;;;7.40;1.45;;;;;;;33.26;28.96;99399.06;1897977;102;26091;-86
2022/06/19 14:50:23;;;;;;;10.60;1.75;;;;;;;33.37;29.08;99387.32;1909807;101;25397;-88
2022/06/19 14:54:47;;;;;;;7.92;2.22;;;;;;;33.42;29.31;99380.19;2015257;94;25880;-86
2022/06/19 14:58:53;;;;;;;8.35;1.92;;;;;;;33.32;29.49;99377.42;2047583;94;25781;-85
2022/06/19 15:02:54;;;;;;;;;;;;;;;;;;;;;
2022/06/19 15:06:45;;;;;;;3.77;1.50;;;;;;;33.17;29.97;99351.73;1980153;98;25549;-87
2022/06/19 15:10:44;;;;;;;;;;;;;;;;;;;;;
2022/06/19 15:14:33;;;;;;;7.58;2.02;;;;;;;32.89;30.54;99340.59;1886240;102;25462;-85
2022/06/19 15:18:33;;;;;;;11.20;1.87;;;;;;;32.91;30.70;99342.18;1905595;101;25995;-87
2022/06/19 15:22:34;;;;;;;10.43;1.80;;;;;;;32.81;30.85;99349.85;1905411;102;25830;-86
2022/06/19 15:26:37;;;;;;;8.08;1.70;;;;;;;32.69;30.66;99344.48;1933079;100;25815;-81
2022/06/19 15:35:39;;;;;;;15.65;1.98;;;;;;;32.67;30.73;99338.85;1891218;103;25866;-89
2022/06/19 15:40:15;;;;;;;7.17;1.72;;;;;;;32.56;30.72;99338.42;1895486;103;25868;-87
2022/06/19 15:47:34;;;;;;;3.45;1.57;;;;;;;32.37;31.10;99341.80;1831441;103;25927;-90
2022/06/19 15:51:43;;;;;;;8.15;2.02;;;;;;;32.29;31.15;99342.91;1846220;104;25911;-91
2022/06/19 16:05:45;;;;;;;7.37;1.80;;;;;;;32.42;31.72;99331.98;1808043;105;25872;-87
2022/06/19 16:09:45;;;;;;;;;;;;;;;;;;;;;
2022/06/19 16:13:21;;;;;;;7.37;1.95;;;;;;;32.45;31.95;99311.00;1786630;107;25922;-87
2022/06/19 16:17:30;;;;;;;6.45;1.90;;;;;;;32.45;32.06;99312.84;1768279;109;26002;-86
2022/06/19 16:21:03;;;;;;;17.77;2.62;;;;;;;32.43;32.02;99308.06;1744393;110;26626;-79
2022/06/19 16:27:56;;;;;;;;;;;;;;;32.14;32.28;99309.14;1764395;110;25972;-81
2022/06/19 16:31:25;;;;;;;13.60;1.82;;;;;;;32.07;32.50;99305.24;1773632;110;25903;-82
2022/06/19 16:46:44;;;;;;;5.17;2.00;;;;;;;31.98;32.24;99287.98;1759764;108;26019;-83
2022/06/19 16:50:25;;;;;;;7.97;2.35;;;;;;;31.98;31.98;99283.94;1784102;109;25848;-84
2022/06/19 16:53:58;;;;;;;11.28;2.12;;;;;;;31.91;31.12;99272.80;1814070;105;25913;-83
2022/06/19 16:58:08;;;;;;;9.50;2.50;;;;;;;31.82;30.92;99278.06;1876569;102;25941;-83
2022/06/19 17:01:54;;;;;;;7.45;2.25;;;;;;;31.67;31.00;99285.57;1958105;99;25834;-84
2022/06/19 17:05:46;;;;;;;8.28;1.50;;;;;;;31.61;31.04;99283.37;1952331;98;25829;-85
2022/06/19 17:09:58;;;;;;;11.15;1.72;;;;;;;31.53;31.21;99274.57;1854620;103;25977;-84
2022/06/19 17:15:15;;;;;;;8.95;1.95;;;;;;;31.46;31.72;99276.05;1877938;102;26214;-82
2022/06/19 17:18:01;;;;;;;4.53;1.95;;;;;;;31.40;31.94;99276.05;1886458;102;26243;-84
2022/06/19 17:21:48;;;;;;;12.73;2.75;;;;;;;31.31;31.92;99271.36;1821618;103;25882;-80
2022/06/19 17:25:30;;;;;;;5.65;1.37;;;;;;;31.25;32.03;99269.15;1801063;106;26233;-86
2022/06/19 17:28:55;;;;;;;8.25;1.52;;;;;;;31.26;32.19;99278.47;1819917;107;26600;-83
2022/06/19 17:32:43;;;;;;;12.95;2.02;;;;;;;31.18;32.02;99267.92;1836369;106;26045;-84
2022/06/19 17:36:37;;;;;;;10.75;1.67;;;;;;;31.16;32.08;99274.80;1850584;104;30891;-84
2022/06/19 17:40:04;;;;;;;10.60;2.67;;;;;;;31.04;31.88;99264.49;1802004;107;27001;-82
2022/06/19 17:43:56;;;;;;;9.63;1.42;;;;;;;30.94;31.76;99262.66;1805037;105;25934;-84
2022/06/19 17:47:17;;;;;;;15.70;1.72;;;;;;;30.86;31.84;99243.58;1875373;104;25762;-86
2022/06/19 17:50:43;;;;;;;6.65;2.33;;;;;;;30.78;31.98;99242.34;1862174;103;26026;-85
2022/06/19 17:54:18;;;;;;;12.37;1.30;;;;;;;30.72;31.84;99241.45;1876238;103;26062;-84
2022/06/19 17:58:07;;;;;;;16.60;2.87;;;;;;;30.69;31.98;99249.75;1931815;99;25950;-83
2022/06/19 18:01:40;;;;;;;10.80;1.75;;;;;;;30.63;32.01;99249.38;1959468;99;25419;-86
2022/06/19 18:05:09;;;;;;;15.98;1.87;;;;;;;30.56;32.09;99251.19;1946183;100;25784;-84
2022/06/19 18:08:45;;;;;;;15.78;3.62;;;;;;;30.48;32.13;99249.59;1954396;98;25893;-76
2022/06/19 18:12:13;;;;;;;7.25;1.82;;;;;;;30.53;32.11;99247.38;1960048;99;25862;-84
2022/06/19 18:19:46;;;;;;;6.60;1.90;;;;;;;30.29;32.24;99224.59;2011766;98;25889;-81
2022/06/19 18:23:12;;;;;;;18.73;2.20;;;;;;;30.19;32.38;99219.55;1980948;98;26086;-75
2022/06/19 18:27:22;;;;;;;;;;;;;;;30.09;32.49;99218.49;1970686;98;25932;-84
2022/06/19 18:31:16;;;;;;;13.35;1.77;;;;;;;30.03;32.58;99218.95;1962735;99;25737;-85
2022/06/19 18:38:30;;;;;;;8.05;1.85;;;;;;;29.85;32.91;99207.77;1892016;101;25754;-84
2022/06/19 18:46:22;;;;;;;13.53;2.05;;;;;;;29.70;33.22;99196.81;1810744;106;27029;-84
2022/06/19 18:50:08;;;;;;;;;;;;;;;;;;;;;
2022/06/19 18:53:33;;;;;;;12.80;2.55;;;;;;;29.50;33.59;99184.83;1823035;106;25993;-84
2022/06/19 18:56:58;;;;;;;17.25;4.12;;;;;;;29.40;33.85;99181.98;1775906;108;25758;-83
2022/06/19 19:00:47;;;;;;;11.00;3.50;;;;;;;29.34;34.04;99183.77;1767476;109;25344;-81
2022/06/19 19:04:09;;;;;;;11.18;2.55;;;;;;;29.26;34.27;99182.11;1778316;109;25956;-84
2022/06/19 19:07:47;;;;;;;22.82;2.77;;;;;;;29.13;34.75;99180.83;1781979;109;26007;-82
2022/06/19 19:11:11;;;;;;;14.28;2.95;;;;;;;29.02;34.98;99180.23;1747538;111;25991;-82
2022/06/19 19:14:36;;;;;;;15.18;2.47;;;;;;;28.92;35.18;99195.23;1756858;110;26006;-85
2022/06/19 19:18:03;;;;;;;17.02;2.80;;;;;;;28.85;35.40;99193.96;1752884;111;25880;-85
2022/06/19 19:21:38;;;;;;;21.50;3.30;;;;;;;28.78;35.79;99191.34;1762957;110;26019;-84
2022/06/19 19:24:59;;;;;;;19.25;2.40;;;;;;;28.64;36.07;99181.10;1768555;110;26034;-84
2022/06/19 19:28:55;;;;;;;13.95;2.37;;;;;;;28.56;36.48;99187.50;1764229;110;25878;-85
2022/06/19 19:32:19;;;;;;;11.33;2.30;;;;;;;28.46;36.66;99193.98;1765748;109;26096;-84
2022/06/19 19:35:56;;;;;;;13.78;2.10;;;;;;;28.31;37.36;99190.97;1766715;110;26340;-83
2022/06/19 19:39:18;;;;;;;6.37;1.95;;;;;;;28.20;38.15;99188.17;1760045;110;26016;-85
2022/06/19 19:42:39;;;;;;;15.20;3.02;;;;;;;28.10;38.32;99195.12;1796410;108;25913;-82
2022/06/19 19:46:47;;;;;;;16.02;2.70;;;;;;;27.96;38.88;99201.41;1799777;107;25945;-82
2022/06/19 19:50:30;;;;;;;6.75;2.30;;;;;;;27.82;39.06;99205.02;1813393;105;26068;-82
2022/06/19 19:54:01;;;;;;;16.15;3.33;;;;;;;27.70;39.39;99209.31;1836131;103;26089;-82
2022/06/19 19:57:29;;;;;;;17.62;2.52;;;;;;;27.58;39.75;99210.13;1888476;103;25957;-80
2022/06/19 20:00:53;;;;;;;13.48;2.85;;;;;;;27.49;39.78;99209.39;1898799;102;25793;-81
2022/06/19 20:04:18;;;;;;;24.07;5.33;;;;;;;27.41;39.96;99215.73;1894592;102;26510;-80
2022/06/19 20:11:27;;;;;;;17.98;3.95;;;;;;;27.39;39.99;99238.56;1903573;102;26040;-83
2022/06/19 20:14:57;;;;;;;17.02;2.10;;;;;;;27.39;39.88;99233.69;1904771;102;25866;-83
2022/06/19 20:18:20;;;;;;;12.30;2.20;;;;;;;27.34;39.88;99238.45;1905759;102;25933;-84
2022/06/19 20:21:54;;;;;;;22.42;3.20;;;;;;;27.33;39.74;99250.12;1905940;102;26124;-83
2022/06/19 20:25:31;;;;;;;15.90;2.37;;;;;;;27.44;39.47;99259.66;1900236;101;26382;-81
2022/06/19 20:29:02;;;;;;;16.12;2.70;;;;;;;27.40;39.34;99265.69;1897696;102;26110;-80
2022/06/19 20:32:39;;;;;;;10.70;2.17;;;;;;;27.40;39.22;99266.17;1890915;102;25937;-89
2022/06/19 20:36:06;;;;;;;13.45;2.98;;;;;;;27.42;39.35;99266.95;1905525;102;25743;-85
2022/06/19 20:39:28;;;;;;;12.17;2.90;;;;;;;27.39;39.35;99272.02;1896088;102;25841;-83
2022/06/19 20:43:14;;;;;;;18.15;3.67;;;;;;;27.44;39.53;99289.11;1884004;103;25859;-93
2022/06/19 20:46:51;;;;;;;12.75;2.87;;;;;;;27.41;39.77;99293.34;1880620;97;25862;-87
2022/06/19 20:50:41;;;;;;;15.08;2.50;;;;;;;27.36;40.00;99306.14;1913179;99;26028;-80
2022/06/19 20:54:02;;;;;;;12.70;2.42;;;;;;;27.34;40.05;99308.04;1911349;101;26240;-92
2022/06/19 20:57:26;;;;;;;14.40;2.17;;;;;;;27.29;39.83;99307.00;1925617;100;25451;-91
2022/06/19 21:00:58;;;;;;;11.48;2.50;;;;;;;27.24;39.87;99308.64;1904405;101;25525;-95
2022/06/19 21:04:33;;;;;;;;;;;;;;;;;;;;;
2022/06/19 21:08:08;;;;;;;12.68;2.70;;;;;;;27.20;40.05;99315.14;1957211;99;25869;-86
2022/06/19 21:12:04;;;;;;;;;;;;;;;;;;;;;
2022/06/19 21:15:38;;;;;;;9.03;2.52;;;;;;;27.08;39.62;99302.48;2033833;95;25796;-85
2022/06/19 21:19:11;;;;;;;7.75;2.37;;;;;;;27.04;39.90;99311.17;2020552;96;26078;-84
2022/06/19 21:22:55;;;;;;;10.10;2.33;;;;;;;27.06;40.84;99361.41;2053534;94;25438;-81
2022/06/19 21:26:59;;;;;;;;;;;;;;;;;;;;;
2022/06/19 21:30:47;;;;;;;13.50;2.60;;;;;;;27.11;40.20;99334.39;2065415;94;25352;-82
2022/06/19 21:34:43;;;;;;;17.45;3.02;;;;;;;27.02;39.68;99310.39;2072237;94;25949;-83
2022/06/19 21:38:36;;;;;;;11.70;2.00;;;;;;;27.00;40.01;99326.14;2086547;93;26039;-82
2022/06/19 21:42:35;;;;;;;5.78;2.95;;;;;;;26.96;39.55;99329.97;2059866;94;25847;-83
2022/06/19 21:46:22;;;;;;;7.28;1.67;;;;;;;26.89;40.31;99330.81;2017161;96;25899;-81
2022/06/19 21:50:05;;;;;;;8.10;2.10;;;;;;;26.89;40.09;99325.95;2012906;96;25835;-83
2022/06/19 22:14:31;;;;;;;3.67;1.65;;;;;;;26.90;41.77;99340.58;1839940;106;26028;-81
2022/06/19 22:18:27;;;;;;;10.30;2.58;;;;;;;26.87;42.27;99346.59;1790042;107;26115;-83
2022/06/19 22:22:19;;;;;;;10.85;2.05;;;;;;;26.79;42.18;99324.30;1790100;108;26010;-84
2022/06/19 22:26:30;;;;;;;7.80;3.65;;;;;;;26.64;41.19;99309.20;1809780;108;25435;-82
2022/06/19 22:30:36;;;;;;;9.98;2.22;;;;;;;26.55;42.01;99310.11;1773355;110;25881;-82
2022/06/19 22:34:37;;;;;;;21.55;2.62;;;;;;;26.41;41.39;99307.84;1737688;110;25855;-83
2022/06/19 22:38:27;;;;;;;7.33;2.15;;;;;;;26.30;41.27;99316.50;1729940;112;26041;-80
2022/06/19 22:41:55;;;;;;;8.40;1.80;;;;;;;26.27;42.13;99307.32;1734641;111;25972;-81
2022/06/19 22:45:48;;;;;;;10.20;2.15;;;;;;;26.17;41.90;99284.77;1690675;115;25969;-81
2022/06/19 22:49:48;;;;;;;11.75;2.22;;;;;;;26.07;41.82;99319.16;1700060;113;25961;-82
2022/06/19 22:53:13;;;;;;;13.05;1.92;;;;;;;26.00;42.29;99313.78;1696908;113;25889;-81
2022/06/19 23:08:40;;;;;;;6.35;1.98;;;;;;;25.70;42.49;99294.98;1745115;109;26006;-82
2022/06/19 23:12:30;;;;;;;7.45;2.12;;;;;;;25.62;42.66;99282.92;1770060;109;25922;-81
2022/06/19 23:16:06;;;;;;;11.70;2.35;;;;;;;25.55;42.46;99259.31;1747750;111;25804;-81
2022/06/19 23:19:58;;;;;;;9.68;1.80;;;;;;;25.31;42.56;99266.42;1735163;111;26003;-81
2022/06/19 23:24:07;;;;;;;;;;;;;;;;;;;;;
2022/06/19 23:27:40;;;;;;;10.72;2.25;;;;;;;24.98;42.86;99267.26;1758080;111;25984;-83
2022/06/19 23:35:14;;;;;;;9.68;1.67;;;;;;;24.79;43.24;99274.50;1784362;109;26003;-81
2022/06/19 23:38:49;;;;;;;11.80;3.05;;;;;;;24.67;43.37;99260.47;1817527;105;25819;-82
2022/06/19 23:49:47;;;;;;;14.47;1.90;;;;;;;24.46;43.82;99267.78;1724941;110;26156;-82
2022/06/19 23:53:35;;;;;;;;;;;;;;;;;;;;;
